createdAt,value
2022-08-11T00:02:30.488Z,24.70
2022-08-11T00:05:09.391Z,24.70
2022-08-11T00:07:46.742Z,24.80
2022-08-11T00:10:23.370Z,24.70
2022-08-11T00:12:59.565Z,24.70
2022-08-11T00:15:43.420Z,24.70
2022-08-11T00:18:19.022Z,24.70
2022-08-11T00:20:59.027Z,24.70
2022-08-11T00:23:33.080Z,24.70
2022-08-11T00:26:09.389Z,24.70
2022-08-11T00:28:43.554Z,24.70
2022-08-11T00:31:28.425Z,24.70
2022-08-11T00:34:04.071Z,24.70
2022-08-11T00:36:44.307Z,24.70
2022-08-11T00:39:21.528Z,24.70
2022-08-11T00:42:17.130Z,24.70
2022-08-11T00:45:03.535Z,24.70
2022-08-11T00:47:51.711Z,24.70
2022-08-11T00:50:38.537Z,24.70
2022-08-11T00:53:34.081Z,24.70
2022-08-11T00:56:46.732Z,24.80
2022-08-11T00:59:54.815Z,24.80
2022-08-11T01:02:47.230Z,24.70
2022-08-11T01:05:51.455Z,24.70
2022-08-11T01:08:56.678Z,24.70
2022-08-11T01:12:08.506Z,24.70
2022-08-11T01:15:10.289Z,24.70
2022-08-11T01:18:19.044Z,24.70
2022-08-11T01:21:32.840Z,24.70
2022-08-11T01:24:57.507Z,24.70
2022-08-11T01:28:07.153Z,24.70
2022-08-11T01:31:14.163Z,24.70
2022-08-11T01:34:23.685Z,24.70
2022-08-11T01:37:23.836Z,24.70
2022-08-11T01:40:36.858Z,24.70
2022-08-11T01:44:04.406Z,24.70
2022-08-11T01:46:51.635Z,24.70
2022-08-11T01:50:07.774Z,24.70
2022-08-11T01:52:37.965Z,24.70
2022-08-11T01:55:18.067Z,24.70
2022-08-11T01:58:02.917Z,24.70
2022-08-11T02:00:47.555Z,24.70
2022-08-11T02:03:28.633Z,24.70
2022-08-11T02:06:32.335Z,24.70
2022-08-11T02:09:14.652Z,24.70
2022-08-11T02:11:53.819Z,24.70
2022-08-11T02:14:33.035Z,24.70
2022-08-11T02:17:15.058Z,24.70
2022-08-11T02:20:14.264Z,24.70
2022-08-11T02:23:14.208Z,24.70
2022-08-11T02:26:13.248Z,24.70
2022-08-11T02:29:01.410Z,24.70
2022-08-11T02:32:28.418Z,24.70
2022-08-11T02:35:15.693Z,24.70
2022-08-11T02:37:59.810Z,24.70
2022-08-11T02:40:44.339Z,24.70
2022-08-11T02:43:36.362Z,24.70
2022-08-11T02:46:23.203Z,24.70
2022-08-11T02:49:24.764Z,24.70
2022-08-11T02:52:07.298Z,24.70
2022-08-11T02:54:47.393Z,24.70
2022-08-11T02:57:27.659Z,24.70
2022-08-11T03:00:09.372Z,24.70
2022-08-11T03:02:51.561Z,24.60
2022-08-11T03:05:43.713Z,24.70
2022-08-11T03:08:51.465Z,24.70
2022-08-11T03:12:00.455Z,24.60
2022-08-11T03:15:01.827Z,24.70
2022-08-11T03:17:43.403Z,24.60
2022-08-11T03:20:38.017Z,24.70
2022-08-11T03:23:20.609Z,24.70
2022-08-11T03:26:02.982Z,24.70
2022-08-11T03:28:44.052Z,24.70
2022-08-11T03:31:26.018Z,24.60
2022-08-11T03:34:07.068Z,24.60
2022-08-11T03:37:34.729Z,24.70
2022-08-11T03:40:37.828Z,24.70
2022-08-11T03:43:22.439Z,24.70
2022-08-11T03:46:07.352Z,24.60
2022-08-11T03:48:50.496Z,24.70
2022-08-11T03:51:44.942Z,24.70
2022-08-11T03:54:34.388Z,24.60
2022-08-11T03:57:43.958Z,24.60
2022-08-11T04:00:55.374Z,24.70
2022-08-11T04:04:02.946Z,24.70
2022-08-11T04:07:05.633Z,24.70
2022-08-11T04:10:19.224Z,24.60
2022-08-11T04:13:18.812Z,24.60
2022-08-11T04:16:12.504Z,24.70
2022-08-11T04:19:18.548Z,24.60
2022-08-11T04:22:20.732Z,24.70
2022-08-11T04:25:26.238Z,24.70
2022-08-11T04:28:43.060Z,24.70
2022-08-11T04:31:51.181Z,24.60
2022-08-11T04:34:41.393Z,24.60
2022-08-11T04:37:44.630Z,24.60
2022-08-11T04:41:00.779Z,24.60
2022-08-11T04:44:22.651Z,24.60
2022-08-11T04:48:03.811Z,24.60
2022-08-11T04:51:09.315Z,24.60
2022-08-11T04:54:26.388Z,24.60
2022-08-11T04:57:26.856Z,24.70
2022-08-11T05:00:25.151Z,24.60
2022-08-11T05:03:43.022Z,24.60
2022-08-11T05:06:49.070Z,24.60
2022-08-11T05:09:39.210Z,24.60
2022-08-11T05:12:31.327Z,24.60
2022-08-11T05:15:23.701Z,24.60
2022-08-11T05:18:20.981Z,24.60
2022-08-11T05:21:15.090Z,24.60
2022-08-11T05:24:16.599Z,24.60
2022-08-11T05:27:13.772Z,24.60
2022-08-11T05:30:07.647Z,24.60
2022-08-11T05:33:02.620Z,24.60
2022-08-11T05:36:00.804Z,24.60
2022-08-11T05:38:56.662Z,24.60
2022-08-11T05:41:50.276Z,24.60
2022-08-11T05:44:46.102Z,24.60
2022-08-11T05:47:43.819Z,24.60
2022-08-11T05:50:37.562Z,24.60
2022-08-11T05:53:29.927Z,24.50
2022-08-11T05:56:20.906Z,24.40
2022-08-11T05:58:56.458Z,24.40
2022-08-11T06:01:34.686Z,24.40
2022-08-11T06:04:18.498Z,24.30
2022-08-11T06:06:57.079Z,24.30
2022-08-11T06:09:35.012Z,24.20
2022-08-11T06:12:10.417Z,24.20
2022-08-11T06:14:46.265Z,24.20
2022-08-11T06:17:27.607Z,24.20
2022-08-11T06:20:14.973Z,24.20
2022-08-11T06:23:00.632Z,24.10
2022-08-11T06:25:37.159Z,24.10
2022-08-11T06:28:11.340Z,24.10
2022-08-11T06:30:47.737Z,24.10
2022-08-11T06:33:34.096Z,24.10
2022-08-11T06:36:14.816Z,24.10
2022-08-11T06:38:59.891Z,24.00
2022-08-11T06:41:42.309Z,24.00
2022-08-11T06:44:25.591Z,24.00
2022-08-11T06:47:09.010Z,24.00
2022-08-11T06:50:05.726Z,24.00
2022-08-11T06:52:42.559Z,24.00
2022-08-11T06:55:56.743Z,24.00
2022-08-11T06:58:53.434Z,24.00
2022-08-11T07:01:49.293Z,24.00
2022-08-11T07:04:33.985Z,23.90
2022-08-11T07:08:33.573Z,23.90
2022-08-11T07:11:29.743Z,23.90
2022-08-11T07:14:23.170Z,23.90
2022-08-11T07:16:59.987Z,23.90
2022-08-11T07:19:51.575Z,23.90
2022-08-11T07:22:51.358Z,23.90
2022-08-11T07:25:43.412Z,24.00
2022-08-11T07:28:41.694Z,23.90
2022-08-11T07:31:21.542Z,23.90
2022-08-11T07:34:12.062Z,24.00
2022-08-11T07:36:52.777Z,24.00
2022-08-11T07:39:29.816Z,24.00
2022-08-11T07:42:08.747Z,24.00
2022-08-11T07:44:58.111Z,24.00
2022-08-11T07:47:49.874Z,24.00
2022-08-11T07:50:42.422Z,24.00
2022-08-11T07:53:16.892Z,24.00
2022-08-11T07:55:54.468Z,24.00
2022-08-11T07:58:53.164Z,24.00
2022-08-11T08:01:45.115Z,24.00
2022-08-11T08:04:38.654Z,24.00
2022-08-11T08:07:30.001Z,24.00
2022-08-11T08:10:21.904Z,24.00
2022-08-11T08:13:15.561Z,24.00
2022-08-11T08:16:06.949Z,24.00
2022-08-11T08:18:42.045Z,24.10
2022-08-11T08:21:17.055Z,24.00
2022-08-11T08:23:53.945Z,24.10
2022-08-11T08:26:51.246Z,24.10
2022-08-11T08:29:46.114Z,24.10
2022-08-11T08:32:21.926Z,24.10
2022-08-11T08:34:57.721Z,24.10
2022-08-11T08:37:47.018Z,24.10
2022-08-11T08:40:21.766Z,24.10
2022-08-11T08:42:58.327Z,24.10
2022-08-11T08:45:37.893Z,24.10
2022-08-11T08:48:16.063Z,24.10
2022-08-11T08:51:12.711Z,24.10
2022-08-11T08:53:56.167Z,24.10
2022-08-11T08:56:31.696Z,24.10
2022-08-11T08:59:07.259Z,24.10
2022-08-11T09:01:49.319Z,24.10
2022-08-11T09:04:23.470Z,24.10
2022-08-11T09:07:01.255Z,24.10
2022-08-11T09:09:37.243Z,24.10
2022-08-11T09:12:13.183Z,24.10
2022-08-11T09:15:03.618Z,24.10
2022-08-11T09:17:42.534Z,24.10
2022-08-11T09:20:21.550Z,24.10
2022-08-11T09:26:30.811Z,24.10
2022-08-11T09:29:06.082Z,24.10
2022-08-11T09:31:40.656Z,24.10
2022-08-11T09:34:17.671Z,24.10
2022-08-11T09:37:09.841Z,24.10
2022-08-11T09:40:01.703Z,24.10
2022-08-11T09:42:54.139Z,24.10
2022-08-11T09:45:29.437Z,24.10
2022-08-11T09:48:14.684Z,24.10
2022-08-11T09:50:52.734Z,24.10
2022-08-11T09:53:36.182Z,24.10
2022-08-11T09:56:35.889Z,24.10
2022-08-11T09:59:10.803Z,24.10
2022-08-11T10:01:49.532Z,24.10
2022-08-11T10:04:31.459Z,24.10
2022-08-11T10:07:08.729Z,24.10
2022-08-11T10:09:46.948Z,24.10
2022-08-11T10:12:25.330Z,24.10
2022-08-11T10:15:21.337Z,24.10
2022-08-11T10:18:15.717Z,24.10
2022-08-11T10:20:51.189Z,24.10
2022-08-11T10:24:00.293Z,24.10
2022-08-11T10:26:53.690Z,24.10
2022-08-11T10:29:50.171Z,24.10
2022-08-11T10:32:57.412Z,24.10
2022-08-11T10:35:34.692Z,24.00
2022-08-11T10:38:10.080Z,24.00
2022-08-11T10:41:10.250Z,24.00
2022-08-11T10:44:03.268Z,24.00
2022-08-11T10:46:56.532Z,24.00
2022-08-11T10:49:30.674Z,24.00
2022-08-11T10:52:22.791Z,24.00
2022-08-11T10:55:14.569Z,24.00
2022-08-11T10:58:17.133Z,24.00
2022-08-11T11:00:57.137Z,24.00
2022-08-11T11:03:34.727Z,24.00
2022-08-11T11:06:28.586Z,24.00
2022-08-11T11:09:08.348Z,24.00
2022-08-11T11:12:08.166Z,24.10
2022-08-11T11:15:17.880Z,24.10
2022-08-11T11:17:57.484Z,24.10
2022-08-11T11:20:38.706Z,24.10
2022-08-11T11:23:20.177Z,24.10
2022-08-11T11:26:32.482Z,24.10
2022-08-11T11:29:45.229Z,24.10
2022-08-11T11:32:28.293Z,24.20
2022-08-11T11:35:35.156Z,24.20
2022-08-11T11:38:14.125Z,24.20
2022-08-11T11:41:09.803Z,24.30
2022-08-11T11:43:47.389Z,24.30
2022-08-11T11:46:21.621Z,24.40
2022-08-11T11:48:58.939Z,24.40
2022-08-11T11:51:33.156Z,24.40
2022-08-11T11:54:08.185Z,24.40
2022-08-11T11:56:45.592Z,24.50
2022-08-11T11:59:36.925Z,24.50
2022-08-11T12:02:12.698Z,24.50
2022-08-11T12:04:48.936Z,24.60
2022-08-11T12:07:40.796Z,24.60
2022-08-11T12:10:15.353Z,24.60
2022-08-11T12:13:07.918Z,24.60
2022-08-11T12:16:31.541Z,24.70
2022-08-11T12:18:36.820Z,24.70
2022-08-11T12:21:12.965Z,24.70
2022-08-11T12:24:07.202Z,24.70
2022-08-11T12:27:14.998Z,24.70
2022-08-11T12:29:55.493Z,24.80
2022-08-11T12:32:32.287Z,24.80
2022-08-11T12:35:08.083Z,24.80
2022-08-11T12:37:46.538Z,24.80
2022-08-11T12:41:11.665Z,24.80
2022-08-11T12:43:56.379Z,24.80
2022-08-11T12:46:32.981Z,24.90
2022-08-11T12:49:30.848Z,24.80
2022-08-11T12:52:14.810Z,24.90
2022-08-11T12:54:59.986Z,24.90
2022-08-11T12:57:54.603Z,24.90
2022-08-11T13:00:46.567Z,24.90
2022-08-11T13:03:39.201Z,24.80
2022-08-11T13:06:13.895Z,24.90
2022-08-11T13:08:48.954Z,24.90
2022-08-11T13:11:56.380Z,24.90
2022-08-11T13:14:33.114Z,24.90
2022-08-11T13:17:40.065Z,24.90
2022-08-11T13:20:21.393Z,24.90
2022-08-11T13:22:57.475Z,24.90
2022-08-11T13:25:33.724Z,24.90
2022-08-11T13:28:11.184Z,24.90
2022-08-11T13:31:02.924Z,24.90
2022-08-11T13:33:40.387Z,24.90
2022-08-11T13:36:15.890Z,24.90
2022-08-11T13:38:51.165Z,24.90
2022-08-11T13:41:41.973Z,24.90
2022-08-11T13:44:25.256Z,24.90
2022-08-11T13:47:04.254Z,24.90
2022-08-11T13:49:41.326Z,24.90
2022-08-11T13:52:18.829Z,25.00
2022-08-11T13:54:53.902Z,25.00
2022-08-11T13:58:06.629Z,25.00
2022-08-11T14:00:28.366Z,25.00
2022-08-11T14:03:03.526Z,25.00
2022-08-11T14:05:41.536Z,25.00
2022-08-11T14:08:37.382Z,25.00
2022-08-11T14:12:21.202Z,25.00
2022-08-11T14:14:29.122Z,25.00
2022-08-11T14:17:10.058Z,25.00
2022-08-11T14:19:48.880Z,25.00
2022-08-11T14:22:23.338Z,25.00
2022-08-11T14:24:59.609Z,25.00
2022-08-11T14:28:29.785Z,25.00
2022-08-11T14:30:47.052Z,25.00
2022-08-11T14:33:22.602Z,25.00
2022-08-11T14:35:57.713Z,25.00
2022-08-11T14:38:32.460Z,25.00
2022-08-11T14:41:24.705Z,25.00
2022-08-11T14:44:16.615Z,25.00
2022-08-11T14:47:32.558Z,25.00
2022-08-11T14:50:11.647Z,25.00
2022-08-11T14:52:52.053Z,24.90
2022-08-11T14:55:45.906Z,24.90
2022-08-11T14:58:21.828Z,24.90
2022-08-11T15:00:58.564Z,24.90
2022-08-11T15:03:33.918Z,24.90
2022-08-11T15:06:09.940Z,24.90
2022-08-11T15:08:56.545Z,25.00
2022-08-11T15:11:50.053Z,24.90
2022-08-11T15:14:41.266Z,24.90
2022-08-11T15:17:16.635Z,24.90
2022-08-11T15:20:05.243Z,24.90
2022-08-11T15:22:58.400Z,24.90
2022-08-11T15:25:34.777Z,24.90
2022-08-11T15:28:28.629Z,24.90
2022-08-11T15:31:22.425Z,24.90
2022-08-11T15:34:18.789Z,24.90
2022-08-11T15:37:16.822Z,24.90
2022-08-11T15:40:31.328Z,24.90
2022-08-11T15:43:33.955Z,24.90
2022-08-11T15:46:12.934Z,24.90
2022-08-11T15:48:51.789Z,24.90
2022-08-11T15:51:34.080Z,24.90
2022-08-11T15:54:11.837Z,24.90
2022-08-11T15:56:51.778Z,24.90
2022-08-11T15:59:44.133Z,24.90
2022-08-11T16:02:37.797Z,24.90
2022-08-11T16:05:45.285Z,24.90
2022-08-11T16:08:10.684Z,24.90
2022-08-11T16:10:48.035Z,24.90
2022-08-11T16:13:46.384Z,24.90
2022-08-11T16:16:20.759Z,24.90
2022-08-11T16:18:58.325Z,24.90
2022-08-11T16:21:36.469Z,24.90
2022-08-11T16:27:02.159Z,24.90
2022-08-11T16:27:14.048Z,24.90
2022-08-11T16:29:51.980Z,24.90
2022-08-11T16:32:27.365Z,24.90
2022-08-11T16:35:21.157Z,24.90
2022-08-11T16:38:13.893Z,24.90
2022-08-11T16:40:50.436Z,24.90
2022-08-11T16:43:44.928Z,24.90
2022-08-11T16:46:40.680Z,24.90
2022-08-11T16:49:19.975Z,24.80
2022-08-11T16:51:54.868Z,24.90
2022-08-11T16:54:29.554Z,24.90
2022-08-11T16:57:21.178Z,24.80
2022-08-11T16:59:58.560Z,24.80
2022-08-11T17:02:54.895Z,24.80
2022-08-11T17:05:54.716Z,24.80
2022-08-11T17:08:56.928Z,24.80
2022-08-11T17:11:52.747Z,24.90
2022-08-11T17:14:34.979Z,24.90
2022-08-11T17:17:15.383Z,24.90
2022-08-11T17:20:42.158Z,24.90
2022-08-11T17:23:07.357Z,24.90
2022-08-11T17:26:03.200Z,24.90
2022-08-11T17:28:40.948Z,24.90
2022-08-11T17:31:33.565Z,24.90
2022-08-11T17:34:26.533Z,24.90
2022-08-11T17:37:02.631Z,24.90
2022-08-11T17:39:37.307Z,24.90
2022-08-11T17:42:29.539Z,24.90
2022-08-11T17:45:33.483Z,24.90
2022-08-11T17:48:25.597Z,24.90
2022-08-11T17:51:02.179Z,24.90
2022-08-11T17:54:09.985Z,25.00
2022-08-11T17:57:20.127Z,25.00
2022-08-11T17:59:57.916Z,25.00
2022-08-11T18:02:53.076Z,24.90
2022-08-11T18:05:30.304Z,25.00
2022-08-11T18:08:24.374Z,25.00
2022-08-11T18:12:06.165Z,24.90
2022-08-11T18:14:33.609Z,25.00
2022-08-11T18:17:25.393Z,25.00
2022-08-11T18:20:17.111Z,25.00
2022-08-11T18:23:10.894Z,24.90
2022-08-11T18:26:06.467Z,25.00
2022-08-11T18:29:05.454Z,24.90
2022-08-11T18:32:04.691Z,24.90
2022-08-11T18:35:00.520Z,24.90
2022-08-11T18:37:54.819Z,24.90
2022-08-11T18:40:47.106Z,24.90
2022-08-11T18:43:41.722Z,24.90
2022-08-11T18:46:37.775Z,24.90
2022-08-11T18:50:02.558Z,24.90
2022-08-11T18:52:48.152Z,24.90
2022-08-11T18:55:39.727Z,24.90
2022-08-11T18:58:33.851Z,24.90
2022-08-11T19:01:27.694Z,25.00
2022-08-11T19:04:23.502Z,25.00
2022-08-11T19:07:22.720Z,25.00
2022-08-11T19:10:15.172Z,25.00
2022-08-11T19:13:08.042Z,25.00
2022-08-11T19:16:00.661Z,25.00
2022-08-11T19:18:53.777Z,25.00
2022-08-11T19:21:48.247Z,25.00
2022-08-11T19:24:39.165Z,25.00
2022-08-11T19:27:32.375Z,25.00
2022-08-11T19:30:25.125Z,25.00
2022-08-11T19:33:17.528Z,25.00
2022-08-11T19:36:30.131Z,25.00
2022-08-11T19:39:22.901Z,25.00
2022-08-11T19:42:15.314Z,25.10
2022-08-11T19:45:07.655Z,25.10
2022-08-11T19:48:28.014Z,25.10
2022-08-11T19:51:13.309Z,25.20
2022-08-11T19:54:06.414Z,25.20
2022-08-11T19:57:00.831Z,25.20
2022-08-11T19:59:52.906Z,25.20
2022-08-11T20:02:44.544Z,25.20
2022-08-11T20:05:36.369Z,25.20
2022-08-11T20:08:28.448Z,25.20
2022-08-11T20:11:20.646Z,25.20
2022-08-11T20:14:14.210Z,25.20
2022-08-11T20:17:06.175Z,25.20
2022-08-11T20:22:53.126Z,25.30
2022-08-11T20:25:45.897Z,25.20
2022-08-11T20:28:39.155Z,25.30
2022-08-11T20:31:33.511Z,25.30
2022-08-11T20:34:26.669Z,25.30
2022-08-11T20:37:20.418Z,25.20
2022-08-11T20:40:13.220Z,25.30
2022-08-11T20:43:05.094Z,25.20
2022-08-11T20:45:57.372Z,25.20
2022-08-11T20:48:53.546Z,25.20
2022-08-11T20:51:45.956Z,25.20
2022-08-11T20:54:43.823Z,25.20
2022-08-11T20:58:00.140Z,25.20
2022-08-11T21:00:50.419Z,25.20
2022-08-11T21:03:54.971Z,25.20
2022-08-11T21:06:54.059Z,25.10
2022-08-11T21:10:00.880Z,25.10
2022-08-11T21:13:00.861Z,25.10
2022-08-11T21:16:25.082Z,25.10
2022-08-11T21:19:59.718Z,25.10
2022-08-11T21:22:59.379Z,25.10
2022-08-11T21:25:59.362Z,25.10
2022-08-11T21:28:53.642Z,25.10
2022-08-11T21:31:47.426Z,25.10
2022-08-11T21:34:41.073Z,25.00
2022-08-11T21:37:34.385Z,25.00
2022-08-11T21:40:30.060Z,25.00
2022-08-11T21:43:22.085Z,25.00
2022-08-11T21:46:14.863Z,25.00
2022-08-11T21:49:07.085Z,25.00
2022-08-11T21:51:58.418Z,25.00
2022-08-11T21:54:50.990Z,25.00
2022-08-11T21:57:48.232Z,25.00
2022-08-11T22:00:41.552Z,25.00
2022-08-11T22:03:46.425Z,25.00
2022-08-11T22:06:41.815Z,25.00
2022-08-11T22:09:33.635Z,25.00
2022-08-11T22:12:33.817Z,25.00
2022-08-11T22:15:29.703Z,25.00
2022-08-11T22:18:21.509Z,25.00
2022-08-11T22:21:18.042Z,25.00
2022-08-11T22:24:29.967Z,25.00
2022-08-11T22:27:22.016Z,25.00
2022-08-11T22:30:13.329Z,25.00
2022-08-11T22:33:06.313Z,25.00
2022-08-11T22:35:59.491Z,25.00
2022-08-11T22:38:53.526Z,25.00
2022-08-11T22:41:45.917Z,25.00
2022-08-11T22:44:37.197Z,25.00
2022-08-11T22:47:40.494Z,24.90
2022-08-11T22:50:34.077Z,25.00
2022-08-11T22:53:25.681Z,25.00
2022-08-11T22:56:37.970Z,24.90
2022-08-11T22:59:29.315Z,24.90
2022-08-11T23:02:21.443Z,24.90
2022-08-11T23:05:13.806Z,24.90
2022-08-11T23:08:06.897Z,24.90
2022-08-11T23:10:59.247Z,24.90
2022-08-11T23:13:52.083Z,24.90
2022-08-11T23:16:44.348Z,24.90
2022-08-11T23:20:07.220Z,24.90
2022-08-11T23:22:50.324Z,24.90
2022-08-11T23:25:44.168Z,24.90
2022-08-11T23:28:37.290Z,24.90
2022-08-11T23:31:50.816Z,24.90
2022-08-11T23:35:03.621Z,24.90
2022-08-11T23:37:59.801Z,24.90
2022-08-11T23:40:52.504Z,24.90
2022-08-11T23:43:43.819Z,24.90
2022-08-11T23:46:38.003Z,24.90
2022-08-11T23:49:29.624Z,24.90
2022-08-11T23:52:22.208Z,24.90
2022-08-11T23:55:13.814Z,24.90
2022-08-11T23:58:06.568Z,24.90
